KPIE/PIE METAR and TAF weather

Enter ICAO airport designator
Station Type Date Time Source
KPIE METAR 2021/09/23 17:53 UTC NOAA

KPIE 231753Z 03004KT 10SM CLR 30/23 A2991 RMK AO2 SLP127 60010 T03000233 10300 20250 58006


Station Type Date Time Source
KPIE Decoded METAR 2021/09/23 17:53 UTC NOAA

ST PETERSBURG/CLEARWATER, FL, United States (KPIE) 27-55N 82-41W 4M
Sep 23, 2021 - 01:53 PM EDT / 2021.09.23 1753 UTC
Wind: from the NNE (030 degrees) at 5 MPH (4 KT):0
Visibility: 10 mile(s):0
Sky conditions: clear
Temperature: 86.0 F (30.0 C)
Heat index: 93.7 F (34.3 C):1
Dew Point: 73.9 F (23.3 C)
Relative Humidity: 67%
Pressure (altimeter): 29.91 in. Hg (1012 hPa)
Pressure tendency: 0.02 inches (0.6 hPa) lower than three hours ago
ob: KPIE 231753Z 03004KT 10SM CLR 30/23 A2991 RMK AO2 SLP127 60010 T03000233 10300 20250 58006
cycle: 18

Station Type Date Time Source
KPIE TAF 2021/09/23 18:46 UTC NOAA

TAF KPIE 231743Z 2318/2418 34009KT P6SM SCT025 BKN050
FM240000 36008KT P6SM SCT040
FM240300 04007KT P6SM FEW030
FM241400 06006KT P6SM FEW040 FEW100

Example: see airport list